Time,TemperatureF,DewpointF,PressureIn,WindDirection,WindDirectionDegrees,WindSpeedMPH,WindSpeedGustMPH,Humidity,HourlyPrecipIn,Conditions,Clouds,dailyrainin,SoftwareType,DateUTC
2013-12-20 00:00:00,37.3,30.4,30.08,North,0,0.0,0.0,76,0.00,,,0.00,WUHU216HW,2013-12-20 05:00:00,
2013-12-20 00:01:00,37.1,30.3,30.07,North,0,0.0,0.0,76,0.00,,,0.00,WUHU216HW,2013-12-20 05:01:00,
2013-12-20 00:02:00,37.3,30.4,30.08,North,0,0.0,0.0,76,0.00,,,0.00,WUHU216HW,2013-12-20 05:02:00,
2013-12-20 00:07:00,37.1,30.3,30.08,North,0,0.0,0.0,76,0.00,,,0.00,WUHU216HW,2013-12-20 05:07:00,
2013-12-20 00:12:00,37.1,30.3,30.07,North,0,0.0,0.0,76,0.00,,,0.00,WUHU216HW,2013-12-20 05:12:00,
2013-12-20 00:17:00,37.1,30.3,30.06,North,0,0.0,0.0,76,0.00,,,0.00,WUHU216HW,2013-12-20 05:17:00,
2013-12-20 00:22:00,36.9,30.3,30.06,North,0,0.0,0.0,77,0.00,,,0.00,WUHU216HW,2013-12-20 05:22:00,
2013-12-20 00:27:00,36.9,30.3,30.07,North,0,0.0,0.0,77,0.00,,,0.00,WUHU216HW,2013-12-20 05:27:00,
2013-12-20 00:32:00,36.7,30.2,30.07,North,0,0.0,0.0,77,0.00,,,0.00,WUHU216HW,2013-12-20 05:32:00,
2013-12-20 00:37:00,36.7,29.9,30.07,North,0,0.0,0.0,76,0.00,,,0.00,WUHU216HW,2013-12-20 05:37:00,
2013-12-20 00:42:00,36.7,29.9,30.07,North,0,0.0,0.0,76,0.00,,,0.00,WUHU216HW,2013-12-20 05:42:00,
2013-12-20 00:47:00,36.7,29.9,30.07,North,0,0.0,0.0,76,0.00,,,0.00,WUHU216HW,2013-12-20 05:47:00,
2013-12-20 00:52:00,36.5,29.7,30.08,North,0,0.0,0.0,76,0.00,,,0.00,WUHU216HW,2013-12-20 05:52:00,
2013-12-20 00:57:00,36.5,29.7,30.07,North,0,0.0,0.0,76,0.00,,,0.00,WUHU216HW,2013-12-20 05:57:00,
2013-12-20 01:02:00,36.5,29.7,30.07,North,0,0.0,0.0,76,0.00,,,0.00,WUHU216HW,2013-12-20 06:02:00,
2013-12-20 01:07:00,36.4,29.8,30.07,North,0,0.0,0.0,77,0.00,,,0.00,WUHU216HW,2013-12-20 06:07:00,
2013-12-20 01:12:00,36.4,29.8,30.07,North,0,0.0,0.0,77,0.00,,,0.00,WUHU216HW,2013-12-20 06:12:00,
2013-12-20 01:17:00,36.4,29.8,30.07,North,0,0.0,0.0,77,0.00,,,0.00,WUHU216HW,2013-12-20 06:17:00,
2013-12-20 01:22:00,36.4,29.8,30.06,North,0,0.0,0.0,77,0.00,,,0.00,WUHU216HW,2013-12-20 06:22:00,
2013-12-20 01:27:00,36.2,29.6,30.06,North,0,0.0,0.0,77,0.00,,,0.00,WUHU216HW,2013-12-20 06:27:00,
2013-12-20 01:32:00,36.2,29.6,30.06,North,0,0.0,0.0,77,0.00,,,0.00,WUHU216HW,2013-12-20 06:32:00,
2013-12-20 01:37:00,36.4,30.2,30.06,North,0,0.0,0.0,78,0.00,,,0.00,WUHU216HW,2013-12-20 06:37:00,
2013-12-20 01:42:00,36.4,30.2,30.06,North,0,0.0,0.0,78,0.00,,,0.00,WUHU216HW,2013-12-20 06:42:00,
2013-12-20 01:47:00,36.2,30.0,30.06,North,0,0.0,0.0,78,0.00,,,0.00,WUHU216HW,2013-12-20 06:47:00,
2013-12-20 01:52:00,36.2,30.0,30.07,North,0,0.0,0.0,78,0.00,,,0.00,WUHU216HW,2013-12-20 06:52:00,
2013-12-20 01:57:00,36.2,30.0,30.08,North,0,0.0,0.0,78,0.00,,,0.00,WUHU216HW,2013-12-20 06:57:00,
2013-12-20 02:02:00,36.2,30.0,30.07,North,0,0.0,0.0,78,0.00,,,0.00,WUHU216HW,2013-12-20 07:02:00,
2013-12-20 02:07:00,36.2,30.0,30.08,North,0,0.0,0.0,78,0.00,,,0.00,WUHU216HW,2013-12-20 07:07:00,
2013-12-20 02:12:00,36.2,30.0,30.08,North,0,0.0,0.0,78,0.00,,,0.00,WUHU216HW,2013-12-20 07:12:00,
2013-12-20 02:17:00,36.2,30.0,30.07,North,0,0.0,0.0,78,0.00,,,0.00,WUHU216HW,2013-12-20 07:17:00,
2013-12-20 02:22:00,36.2,30.0,30.07,North,0,0.0,0.0,78,0.00,,,0.00,WUHU216HW,2013-12-20 07:22:00,
2013-12-20 02:27:00,36.2,30.2,30.07,North,0,0.0,0.0,79,0.00,,,0.00,WUHU216HW,2013-12-20 07:27:00,
2013-12-20 02:32:00,36.2,30.2,30.06,North,0,0.0,0.0,79,0.00,,,0.00,WUHU216HW,2013-12-20 07:32:00,
2013-12-20 02:37:00,36.2,30.2,30.07,North,0,0.0,0.0,79,0.00,,,0.00,WUHU216HW,2013-12-20 07:37:00,
2013-12-20 02:42:00,36.2,30.2,30.06,North,0,0.0,0.0,79,0.00,,,0.00,WUHU216HW,2013-12-20 07:42:00,
2013-12-20 02:47:00,36.2,30.2,30.06,North,0,0.0,0.0,79,0.00,,,0.00,WUHU216HW,2013-12-20 07:47:00,
2013-12-20 02:52:00,36.2,30.2,30.06,North,0,0.0,0.0,79,0.00,,,0.00,WUHU216HW,2013-12-20 07:52:00,
2013-12-20 02:57:00,36.0,30.1,30.06,North,0,0.0,0.0,79,0.00,,,0.00,WUHU216HW,2013-12-20 07:57:00,
2013-12-20 03:02:00,36.0,30.1,30.05,North,0,0.0,0.0,79,0.00,,,0.00,WUHU216HW,2013-12-20 08:02:00,
2013-12-20 03:07:00,36.0,30.1,30.05,North,0,0.0,0.0,79,0.00,,,0.00,WUHU216HW,2013-12-20 08:07:00,
2013-12-20 03:12:00,36.0,30.4,30.06,North,0,0.0,0.0,80,0.00,,,0.00,WUHU216HW,2013-12-20 08:12:00,
2013-12-20 03:17:00,36.0,30.4,30.05,North,0,0.0,0.0,80,0.00,,,0.00,WUHU216HW,2013-12-20 08:17:00,
2013-12-20 03:22:00,36.0,30.4,30.06,North,0,0.0,0.0,80,0.00,,,0.00,WUHU216HW,2013-12-20 08:22:00,
2013-12-20 03:27:00,35.8,30.2,30.06,North,0,0.0,0.0,80,0.00,,,0.00,WUHU216HW,2013-12-20 08:27:00,
2013-12-20 03:32:00,35.8,30.2,30.06,North,0,0.0,0.0,80,0.00,,,0.00,WUHU216HW,2013-12-20 08:32:00,
2013-12-20 03:37:00,35.6,30.1,30.06,North,0,0.0,0.0,80,0.00,,,0.00,WUHU216HW,2013-12-20 08:37:00,
2013-12-20 03:42:00,35.6,30.1,30.06,North,0,0.0,0.0,80,0.00,,,0.00,WUHU216HW,2013-12-20 08:42:00,
2013-12-20 03:47:00,35.6,30.1,30.06,North,0,0.0,0.0,80,0.00,,,0.00,WUHU216HW,2013-12-20 08:47:00,
2013-12-20 03:52:00,35.6,30.1,30.06,North,0,0.0,0.0,80,0.00,,,0.00,WUHU216HW,2013-12-20 08:52:00,
2013-12-20 03:57:00,35.5,29.9,30.06,North,0,0.0,0.0,80,0.00,,,0.00,WUHU216HW,2013-12-20 08:57:00,
2013-12-20 04:02:00,35.3,29.7,30.06,North,0,0.0,0.0,80,0.00,,,0.00,WUHU216HW,2013-12-20 09:02:00,
2013-12-20 04:07:00,35.3,29.7,30.06,North,0,0.0,0.0,80,0.00,,,0.00,WUHU216HW,2013-12-20 09:07:00,
2013-12-20 04:12:00,35.1,29.5,30.06,North,0,0.0,0.0,80,0.00,,,0.00,WUHU216HW,2013-12-20 09:12:00,
2013-12-20 04:17:00,35.1,29.5,30.05,North,0,0.0,0.0,80,0.00,,,0.00,WUHU216HW,2013-12-20 09:17:00,
2013-12-20 04:22:00,35.1,29.5,30.05,North,0,0.0,0.0,80,0.00,,,0.00,WUHU216HW,2013-12-20 09:22:00,
2013-12-20 04:27:00,34.9,29.6,30.05,North,0,0.0,0.0,81,0.00,,,0.00,WUHU216HW,2013-12-20 09:27:00,
2013-12-20 04:32:00,34.9,29.6,30.05,North,0,0.0,0.0,81,0.00,,,0.00,WUHU216HW,2013-12-20 09:32:00,
2013-12-20 04:37:00,34.9,29.6,30.06,North,0,0.0,0.0,81,0.00,,,0.00,WUHU216HW,2013-12-20 09:37:00,
2013-12-20 04:42:00,34.9,29.6,30.06,North,0,0.0,0.0,81,0.00,,,0.00,WUHU216HW,2013-12-20 09:42:00,
2013-12-20 04:47:00,34.9,29.6,30.05,North,0,0.0,0.0,81,0.00,,,0.00,WUHU216HW,2013-12-20 09:47:00,
2013-12-20 04:52:00,34.9,29.6,30.05,North,0,0.0,0.0,81,0.00,,,0.00,WUHU216HW,2013-12-20 09:52:00,
2013-12-20 04:57:00,34.9,29.9,30.05,North,0,0.0,0.0,82,0.00,,,0.00,WUHU216HW,2013-12-20 09:57:00,
2013-12-20 05:02:00,34.9,29.9,30.05,North,0,0.0,0.0,82,0.00,,,0.00,WUHU216HW,2013-12-20 10:02:00,
2013-12-20 05:07:00,35.1,30.1,30.05,North,0,0.0,0.0,82,0.00,,,0.00,WUHU216HW,2013-12-20 10:07:00,
2013-12-20 05:12:00,35.1,30.1,30.05,North,0,0.0,0.0,82,0.00,,,0.00,WUHU216HW,2013-12-20 10:12:00,
2013-12-20 05:17:00,35.1,30.1,30.06,North,0,0.0,0.0,82,0.00,,,0.00,WUHU216HW,2013-12-20 10:17:00,
2013-12-20 05:22:00,35.3,30.2,30.05,North,0,0.0,0.0,82,0.00,,,0.00,WUHU216HW,2013-12-20 10:22:00,
2013-12-20 05:27:00,35.3,30.2,30.05,North,0,0.0,0.0,82,0.00,,,0.00,WUHU216HW,2013-12-20 10:27:00,
2013-12-20 05:32:00,35.5,30.8,30.05,North,0,0.0,0.0,83,0.00,,,0.00,WUHU216HW,2013-12-20 10:32:00,
2013-12-20 05:37:00,35.6,31.0,30.05,North,0,0.0,0.0,83,0.00,,,0.00,WUHU216HW,2013-12-20 10:37:00,
2013-12-20 05:42:00,35.6,31.0,30.05,North,0,0.0,0.0,83,0.00,,,0.00,WUHU216HW,2013-12-20 10:42:00,
2013-12-20 05:47:00,35.6,31.0,30.05,North,0,0.0,0.0,83,0.00,,,0.00,WUHU216HW,2013-12-20 10:47:00,
2013-12-20 05:52:00,35.6,31.0,30.05,North,0,0.0,0.0,83,0.00,,,0.00,WUHU216HW,2013-12-20 10:52:00,
2013-12-20 05:57:00,35.6,31.0,30.05,North,0,0.0,0.0,83,0.00,,,0.00,WUHU216HW,2013-12-20 10:57:00,
2013-12-20 06:02:00,35.8,31.2,30.04,North,0,0.0,0.0,83,0.00,,,0.00,WUHU216HW,2013-12-20 11:02:00,
2013-12-20 06:07:00,35.8,31.2,30.04,North,0,0.0,0.0,83,0.00,,,0.00,WUHU216HW,2013-12-20 11:07:00,
2013-12-20 06:12:00,35.8,31.2,30.04,North,0,0.0,0.0,83,0.00,,,0.00,WUHU216HW,2013-12-20 11:12:00,
2013-12-20 06:17:00,35.8,31.2,30.04,North,0,0.0,0.0,83,0.00,,,0.00,WUHU216HW,2013-12-20 11:17:00,
2013-12-20 06:22:00,35.8,31.2,30.04,North,0,0.0,0.0,83,0.00,,,0.00,WUHU216HW,2013-12-20 11:22:00,
2013-12-20 06:27:00,35.6,31.0,30.04,North,0,0.0,0.0,83,0.00,,,0.00,WUHU216HW,2013-12-20 11:27:00,
2013-12-20 06:32:00,35.6,31.2,30.04,North,0,0.0,0.0,84,0.00,,,0.00,WUHU216HW,2013-12-20 11:32:00,
2013-12-20 06:37:00,35.6,31.2,30.04,North,0,0.0,0.0,84,0.00,,,0.00,WUHU216HW,2013-12-20 11:37:00,
2013-12-20 06:42:00,35.6,31.2,30.04,North,0,0.0,0.0,84,0.00,,,0.00,WUHU216HW,2013-12-20 11:42:00,
2013-12-20 06:47:00,35.6,31.2,30.04,North,0,0.0,0.0,84,0.00,,,0.00,WUHU216HW,2013-12-20 11:47:00,
2013-12-20 06:52:00,35.6,31.2,30.04,North,0,0.0,0.0,84,0.00,,,0.00,WUHU216HW,2013-12-20 11:52:00,
2013-12-20 06:57:00,35.6,31.2,30.04,North,0,0.0,0.0,84,0.00,,,0.00,WUHU216HW,2013-12-20 11:57:00,
2013-12-20 07:02:00,35.6,31.2,30.04,North,0,0.0,0.0,84,0.00,,,0.00,WUHU216HW,2013-12-20 12:02:00,
2013-12-20 07:07:00,35.8,32.0,30.04,North,0,0.0,0.0,86,0.00,,,0.00,WUHU216HW,2013-12-20 12:07:00,
2013-12-20 07:12:00,36.2,32.6,30.05,North,0,0.0,0.0,87,0.00,,,0.00,WUHU216HW,2013-12-20 12:12:00,
2013-12-20 07:17:00,36.5,32.9,30.04,North,0,0.0,0.0,87,0.00,,,0.00,WUHU216HW,2013-12-20 12:17:00,
2013-12-20 07:22:00,36.9,33.3,30.05,North,0,0.0,0.0,87,0.00,,,0.00,WUHU216HW,2013-12-20 12:22:00,
2013-12-20 07:27:00,37.1,33.5,30.05,North,0,0.0,0.0,87,0.00,,,0.00,WUHU216HW,2013-12-20 12:27:00,
2013-12-20 07:32:00,37.4,33.8,30.05,North,0,0.0,0.0,87,0.00,,,0.00,WUHU216HW,2013-12-20 12:32:00,
2013-12-20 07:37:00,37.6,34.0,30.05,North,0,0.0,0.0,87,0.00,,,0.00,WUHU216HW,2013-12-20 12:37:00,
2013-12-20 07:42:00,37.8,34.2,30.05,North,0,0.0,0.0,87,0.00,,,0.00,WUHU216HW,2013-12-20 12:42:00,
2013-12-20 07:47:00,38.0,34.4,30.05,North,0,0.0,0.0,87,0.00,,,0.00,WUHU216HW,2013-12-20 12:47:00,
2013-12-20 07:52:00,38.2,34.6,30.05,North,0,0.0,0.0,87,0.00,,,0.00,WUHU216HW,2013-12-20 12:52:00,
2013-12-20 07:57:00,38.5,34.9,30.05,North,0,0.0,0.0,87,0.00,,,0.00,WUHU216HW,2013-12-20 12:57:00,
2013-12-20 08:02:00,38.7,35.1,30.06,North,0,0.0,0.0,87,0.00,,,0.00,WUHU216HW,2013-12-20 13:02:00,
2013-12-20 08:07:00,38.9,35.3,30.06,North,0,0.0,0.0,87,0.00,,,0.00,WUHU216HW,2013-12-20 13:07:00,
2013-12-20 08:12:00,39.1,35.2,30.05,North,0,0.0,0.0,86,0.00,,,0.00,WUHU216HW,2013-12-20 13:12:00,
2013-12-20 08:17:00,39.2,35.4,30.05,North,0,0.0,0.0,86,0.00,,,0.00,WUHU216HW,2013-12-20 13:17:00,
2013-12-20 08:22:00,39.4,35.3,30.05,North,0,0.0,0.0,85,0.00,,,0.00,WUHU216HW,2013-12-20 13:22:00,
2013-12-20 08:27:00,40.0,35.8,30.05,North,0,0.0,0.0,85,0.00,,,0.00,WUHU216HW,2013-12-20 13:27:00,
2013-12-20 08:32:00,40.0,35.5,30.05,North,0,0.0,0.0,84,0.00,,,0.00,WUHU216HW,2013-12-20 13:32:00,
2013-12-20 08:37:00,40.3,35.8,30.04,North,0,0.0,0.0,84,0.00,,,0.00,WUHU216HW,2013-12-20 13:37:00,
2013-12-20 08:42:00,40.7,36.2,30.04,North,0,0.0,0.0,84,0.00,,,0.00,WUHU216HW,2013-12-20 13:42:00,
2013-12-20 08:47:00,40.9,36.4,30.04,North,0,0.0,0.0,84,0.00,,,0.00,WUHU216HW,2013-12-20 13:47:00,
2013-12-20 08:52:00,41.0,36.2,30.03,North,0,0.0,0.0,83,0.00,,,0.00,WUHU216HW,2013-12-20 13:52:00,
2013-12-20 08:57:00,41.2,36.4,30.04,North,0,0.0,0.0,83,0.00,,,0.00,WUHU216HW,2013-12-20 13:57:00,
2013-12-20 09:02:00,41.6,36.5,30.04,North,0,0.0,0.0,82,0.00,,,0.00,WUHU216HW,2013-12-20 14:02:00,
2013-12-20 09:07:00,41.8,36.9,30.04,North,0,0.0,0.0,83,0.00,,,0.00,WUHU216HW,2013-12-20 14:07:00,
2013-12-20 09:12:00,42.1,37.0,30.04,North,0,0.0,0.0,82,0.00,,,0.00,WUHU216HW,2013-12-20 14:12:00,
2013-12-20 09:17:00,42.3,36.8,30.04,North,0,0.0,0.0,81,0.00,,,0.00,WUHU216HW,2013-12-20 14:17:00,
2013-12-20 09:22:00,42.7,36.9,30.04,North,0,0.0,0.0,80,0.00,,,0.00,WUHU216HW,2013-12-20 14:22:00,
2013-12-20 09:27:00,42.8,36.7,30.04,North,0,0.0,0.0,79,0.00,,,0.00,WUHU216HW,2013-12-20 14:27:00,
2013-12-20 09:32:00,43.0,36.6,30.04,North,0,0.0,0.0,78,0.00,,,0.00,WUHU216HW,2013-12-20 14:32:00,
2013-12-20 09:37:00,43.2,36.8,30.03,North,0,0.0,0.0,78,0.00,,,0.00,WUHU216HW,2013-12-20 14:37:00,
2013-12-20 09:42:00,43.2,36.8,30.04,North,0,0.0,0.0,78,0.00,,,0.00,WUHU216HW,2013-12-20 14:42:00,
2013-12-20 09:47:00,43.4,36.6,30.04,North,0,0.0,0.0,77,0.00,,,0.00,WUHU216HW,2013-12-20 14:47:00,
2013-12-20 09:52:00,43.4,36.6,30.03,North,0,0.0,0.0,77,0.00,,,0.00,WUHU216HW,2013-12-20 14:52:00,
2013-12-20 09:57:00,43.6,36.8,30.03,North,0,0.0,0.0,77,0.00,,,0.00,WUHU216HW,2013-12-20 14:57:00,
2013-12-20 10:02:00,43.6,36.5,30.03,North,0,0.0,0.0,76,0.00,,,0.00,WUHU216HW,2013-12-20 15:02:00,
2013-12-20 10:07:00,43.7,36.6,30.03,North,0,0.0,0.0,76,0.00,,,0.00,WUHU216HW,2013-12-20 15:07:00,
2013-12-20 10:12:00,43.9,36.8,30.03,North,0,0.0,0.0,76,0.00,,,0.00,WUHU216HW,2013-12-20 15:12:00,
2013-12-20 10:17:00,44.3,36.8,30.03,North,0,0.0,0.0,75,0.00,,,0.00,WUHU216HW,2013-12-20 15:17:00,
2013-12-20 10:22:00,44.8,37.0,30.03,North,0,0.0,0.0,74,0.00,,,0.00,WUHU216HW,2013-12-20 15:22:00,
2013-12-20 10:27:00,45.5,37.7,30.03,North,0,0.0,0.0,74,0.00,,,0.00,WUHU216HW,2013-12-20 15:27:00,
2013-12-20 10:32:00,46.4,38.6,30.03,North,0,0.0,0.0,74,0.00,,,0.00,WUHU216HW,2013-12-20 15:32:00,
2013-12-20 10:37:00,47.3,38.1,30.03,North,0,0.0,0.0,70,0.00,,,0.00,WUHU216HW,2013-12-20 15:37:00,
2013-12-20 10:42:00,48.2,39.3,30.03,North,0,0.0,0.0,71,0.00,,,0.00,WUHU216HW,2013-12-20 15:42:00,
2013-12-20 10:47:00,49.0,38.4,30.02,North,0,0.0,0.0,67,0.00,,,0.00,WUHU216HW,2013-12-20 15:47:00,
2013-12-20 10:52:00,49.3,38.4,30.02,North,0,0.0,0.0,66,0.00,,,0.00,WUHU216HW,2013-12-20 15:52:00,
2013-12-20 10:57:00,49.3,38.8,30.01,North,0,0.0,0.0,67,0.00,,,0.00,WUHU216HW,2013-12-20 15:57:00,
2013-12-20 11:02:00,49.1,38.3,30.01,North,0,0.0,0.0,66,0.00,,,0.00,WUHU216HW,2013-12-20 16:02:00,
2013-12-20 11:07:00,49.1,38.3,30.01,North,0,0.0,0.0,66,0.00,,,0.00,WUHU216HW,2013-12-20 16:07:00,
2013-12-20 11:12:00,49.1,38.6,30.01,North,0,0.0,0.0,67,0.00,,,0.00,WUHU216HW,2013-12-20 16:12:00,
2013-12-20 11:17:00,49.0,38.1,30.00,North,0,0.0,0.0,66,0.00,,,0.00,WUHU216HW,2013-12-20 16:17:00,
2013-12-20 11:22:00,48.8,38.3,30.00,North,0,0.0,0.0,67,0.00,,,0.00,WUHU216HW,2013-12-20 16:22:00,
2013-12-20 11:27:00,48.8,37.9,30.00,North,0,0.0,0.0,66,0.00,,,0.00,WUHU216HW,2013-12-20 16:27:00,
2013-12-20 11:32:00,48.6,37.7,30.00,North,0,0.0,0.0,66,0.00,,,0.00,WUHU216HW,2013-12-20 16:32:00,
2013-12-20 11:37:00,48.6,37.7,30.00,North,0,0.0,0.0,66,0.00,,,0.00,WUHU216HW,2013-12-20 16:37:00,
2013-12-20 11:42:00,48.6,38.1,29.99,North,0,0.0,0.0,67,0.00,,,0.00,WUHU216HW,2013-12-20 16:42:00,
2013-12-20 11:47:00,48.4,37.5,29.99,North,0,0.0,0.0,66,0.00,,,0.00,WUHU216HW,2013-12-20 16:47:00,
2013-12-20 11:52:00,48.6,37.7,29.99,North,0,0.0,0.0,66,0.00,,,0.00,WUHU216HW,2013-12-20 16:52:00,
2013-12-20 11:57:00,48.4,37.2,29.99,North,0,0.0,0.0,65,0.00,,,0.00,WUHU216HW,2013-12-20 16:57:00,
2013-12-20 12:02:00,48.2,37.0,29.99,North,0,0.0,0.0,65,0.00,,,0.00,WUHU216HW,2013-12-20 17:02:00,
2013-12-20 12:07:00,48.2,36.6,29.98,North,0,0.0,0.0,64,0.00,,,0.00,WUHU216HW,2013-12-20 17:07:00,
2013-12-20 12:12:00,48.1,36.8,29.98,North,0,0.0,0.0,65,0.00,,,0.00,WUHU216HW,2013-12-20 17:12:00,
2013-12-20 12:17:00,48.2,36.6,29.98,North,0,0.0,0.0,64,0.00,,,0.00,WUHU216HW,2013-12-20 17:17:00,
2013-12-20 12:22:00,48.1,36.5,29.98,North,0,0.0,0.0,64,0.00,,,0.00,WUHU216HW,2013-12-20 17:22:00,
2013-12-20 12:27:00,48.1,36.5,29.98,North,0,0.0,0.0,64,0.00,,,0.00,WUHU216HW,2013-12-20 17:27:00,
2013-12-20 12:32:00,48.1,36.5,29.98,North,0,0.0,0.0,64,0.00,,,0.00,WUHU216HW,2013-12-20 17:32:00,
2013-12-20 12:37:00,48.1,36.5,29.98,North,0,0.0,0.0,64,0.00,,,0.00,WUHU216HW,2013-12-20 17:37:00,
2013-12-20 12:42:00,48.1,36.1,29.98,North,0,0.0,0.0,63,0.00,,,0.00,WUHU216HW,2013-12-20 17:42:00,
2013-12-20 12:47:00,48.2,36.6,29.97,North,0,0.0,0.0,64,0.00,,,0.00,WUHU216HW,2013-12-20 17:47:00,
2013-12-20 12:52:00,48.2,36.6,29.97,North,0,0.0,0.0,64,0.00,,,0.00,WUHU216HW,2013-12-20 17:52:00,
2013-12-20 12:57:00,48.2,36.6,29.97,North,0,0.0,0.0,64,0.00,,,0.00,WUHU216HW,2013-12-20 17:57:00,
2013-12-20 13:02:00,48.4,36.8,29.97,North,0,0.0,0.0,64,0.00,,,0.00,WUHU216HW,2013-12-20 18:02:00,
2013-12-20 13:07:00,48.6,36.2,29.96,North,0,0.0,0.0,62,0.00,,,0.00,WUHU216HW,2013-12-20 18:07:00,
2013-12-20 13:12:00,48.6,35.5,29.96,North,0,0.0,0.0,60,0.00,,,0.00,WUHU216HW,2013-12-20 18:12:00,
2013-12-20 13:17:00,48.8,35.6,29.96,North,0,0.0,0.0,60,0.00,,,0.00,WUHU216HW,2013-12-20 18:17:00,
2013-12-20 13:22:00,48.8,36.0,29.96,North,0,0.0,0.0,61,0.00,,,0.00,WUHU216HW,2013-12-20 18:22:00,
2013-12-20 13:27:00,49.0,36.6,29.96,North,0,0.0,0.0,62,0.00,,,0.00,WUHU216HW,2013-12-20 18:27:00,
2013-12-20 13:32:00,49.0,36.6,29.96,North,0,0.0,0.0,62,0.00,,,0.00,WUHU216HW,2013-12-20 18:32:00,
2013-12-20 13:37:00,49.0,36.6,29.95,North,0,0.0,0.0,62,0.00,,,0.00,WUHU216HW,2013-12-20 18:37:00,
2013-12-20 13:42:00,49.0,36.1,29.95,North,0,0.0,0.0,61,0.00,,,0.00,WUHU216HW,2013-12-20 18:42:00,
2013-12-20 13:47:00,49.0,36.6,29.95,North,0,0.0,0.0,62,0.00,,,0.00,WUHU216HW,2013-12-20 18:47:00,
2013-12-20 13:52:00,49.1,36.7,29.95,North,0,0.0,0.0,62,0.00,,,0.00,WUHU216HW,2013-12-20 18:52:00,
2013-12-20 13:57:00,49.1,36.7,29.95,North,0,0.0,0.0,62,0.00,,,0.00,WUHU216HW,2013-12-20 18:57:00,
2013-12-20 14:02:00,49.3,36.8,29.95,North,0,0.0,0.0,62,0.00,,,0.00,WUHU216HW,2013-12-20 19:02:00,
2013-12-20 14:07:00,49.3,36.5,29.95,North,0,0.0,0.0,61,0.00,,,0.00,WUHU216HW,2013-12-20 19:07:00,
2013-12-20 14:12:00,49.5,36.6,29.95,North,0,0.0,0.0,61,0.00,,,0.00,WUHU216HW,2013-12-20 19:12:00,
2013-12-20 14:17:00,49.7,36.8,29.95,North,0,0.0,0.0,61,0.00,,,0.00,WUHU216HW,2013-12-20 19:17:00,
2013-12-20 14:22:00,49.5,36.6,29.95,North,0,0.0,0.0,61,0.00,,,0.00,WUHU216HW,2013-12-20 19:22:00,
2013-12-20 14:27:00,49.3,36.5,29.95,North,0,0.0,0.0,61,0.00,,,0.00,WUHU216HW,2013-12-20 19:27:00,
2013-12-20 14:32:00,49.5,36.6,29.95,North,0,0.0,0.0,61,0.00,,,0.00,WUHU216HW,2013-12-20 19:32:00,
2013-12-20 14:33:00,49.3,36.5,29.95,North,0,0.0,0.0,61,0.00,,,0.00,WUHU216HW,2013-12-20 19:33:00,
2013-12-20 14:38:00,49.3,36.5,29.95,North,0,0.0,0.0,61,0.00,,,0.00,WUHU216HW,2013-12-20 19:38:00,
2013-12-20 14:43:00,49.3,36.1,29.95,North,0,0.0,0.0,60,0.00,,,0.00,WUHU216HW,2013-12-20 19:43:00,
2013-12-20 14:48:00,49.3,36.5,29.95,North,0,0.0,0.0,61,0.00,,,0.00,WUHU216HW,2013-12-20 19:48:00,
2013-12-20 14:53:00,49.3,36.5,29.95,North,0,0.0,0.0,61,0.00,,,0.00,WUHU216HW,2013-12-20 19:53:00,
2013-12-20 14:58:00,49.1,36.3,29.95,North,0,0.0,0.0,61,0.00,,,0.00,WUHU216HW,2013-12-20 19:58:00,
2013-12-20 15:03:00,49.0,36.1,29.95,North,0,0.0,0.0,61,0.00,,,0.00,WUHU216HW,2013-12-20 20:03:00,
2013-12-20 15:08:00,49.0,36.6,29.95,North,0,0.0,0.0,62,0.00,,,0.00,WUHU216HW,2013-12-20 20:08:00,
2013-12-20 15:13:00,48.8,36.0,29.95,North,0,0.0,0.0,61,0.00,,,0.00,WUHU216HW,2013-12-20 20:13:00,
2013-12-20 15:18:00,48.8,36.0,29.95,North,0,0.0,0.0,61,0.00,,,0.00,WUHU216HW,2013-12-20 20:18:00,
2013-12-20 15:23:00,48.8,36.0,29.95,North,0,0.0,0.0,61,0.00,,,0.00,WUHU216HW,2013-12-20 20:23:00,
2013-12-20 15:28:00,48.6,36.2,29.95,North,0,0.0,0.0,62,0.00,,,0.00,WUHU216HW,2013-12-20 20:28:00,
2013-12-20 15:33:00,48.8,36.4,29.95,North,0,0.0,0.0,62,0.00,,,0.00,WUHU216HW,2013-12-20 20:33:00,
2013-12-20 15:38:00,48.6,36.5,29.95,North,0,0.0,0.0,63,0.00,,,0.00,WUHU216HW,2013-12-20 20:38:00,
2013-12-20 15:43:00,48.6,36.5,29.95,North,0,0.0,0.0,63,0.00,,,0.00,WUHU216HW,2013-12-20 20:43:00,
2013-12-20 15:48:00,48.4,36.4,29.95,North,0,0.0,0.0,63,0.00,,,0.00,WUHU216HW,2013-12-20 20:48:00,
2013-12-20 15:53:00,48.2,36.3,29.95,North,0,0.0,0.0,63,0.00,,,0.00,WUHU216HW,2013-12-20 20:53:00,
2013-12-20 15:58:00,48.1,36.1,29.96,North,0,0.0,0.0,63,0.00,,,0.00,WUHU216HW,2013-12-20 20:58:00,
2013-12-20 16:03:00,47.9,35.9,29.96,North,0,0.0,0.0,63,0.00,,,0.00,WUHU216HW,2013-12-20 21:03:00,
2013-12-20 16:08:00,47.7,36.1,29.96,North,0,0.0,0.0,64,0.00,,,0.00,WUHU216HW,2013-12-20 21:08:00,
2013-12-20 16:13:00,47.5,35.9,29.96,North,0,0.0,0.0,64,0.00,,,0.00,WUHU216HW,2013-12-20 21:13:00,
2013-12-20 16:18:00,47.2,35.6,29.96,North,0,0.0,0.0,64,0.00,,,0.00,WUHU216HW,2013-12-20 21:18:00,
2013-12-20 16:23:00,47.0,35.4,29.96,North,0,0.0,0.0,64,0.00,,,0.00,WUHU216HW,2013-12-20 21:23:00,
2013-12-20 16:28:00,46.8,35.2,29.96,North,0,0.0,0.0,64,0.00,,,0.00,WUHU216HW,2013-12-20 21:28:00,
2013-12-20 16:33:00,46.6,35.5,29.96,North,0,0.0,0.0,65,0.00,,,0.00,WUHU216HW,2013-12-20 21:33:00,
2013-12-20 16:38:00,46.4,35.3,29.96,North,0,0.0,0.0,65,0.00,,,0.00,WUHU216HW,2013-12-20 21:38:00,
2013-12-20 16:43:00,46.3,35.1,29.96,North,0,0.0,0.0,65,0.00,,,0.00,WUHU216HW,2013-12-20 21:43:00,
2013-12-20 16:48:00,46.1,35.4,29.96,North,0,0.0,0.0,66,0.00,,,0.00,WUHU216HW,2013-12-20 21:48:00,
2013-12-20 16:53:00,45.9,35.2,29.96,North,0,0.0,0.0,66,0.00,,,0.00,WUHU216HW,2013-12-20 21:53:00,
2013-12-20 16:58:00,45.7,35.4,29.97,North,0,0.0,0.0,67,0.00,,,0.00,WUHU216HW,2013-12-20 21:58:00,
2013-12-20 17:03:00,45.7,35.4,29.97,North,0,0.0,0.0,67,0.00,,,0.00,WUHU216HW,2013-12-20 22:03:00,
2013-12-20 17:08:00,45.7,35.7,29.97,North,0,0.0,0.0,68,0.00,,,0.00,WUHU216HW,2013-12-20 22:08:00,
2013-12-20 17:13:00,45.7,36.2,29.97,North,0,0.0,0.0,69,0.00,,,0.00,WUHU216HW,2013-12-20 22:13:00,
2013-12-20 17:18:00,45.7,36.2,29.96,North,0,0.0,0.0,69,0.00,,,0.00,WUHU216HW,2013-12-20 22:18:00,
2013-12-20 17:23:00,45.7,36.5,29.96,North,0,0.0,0.0,70,0.00,,,0.00,WUHU216HW,2013-12-20 22:23:00,
2013-12-20 17:28:00,45.7,36.9,29.96,North,0,0.0,0.0,71,0.00,,,0.00,WUHU216HW,2013-12-20 22:28:00,
2013-12-20 17:33:00,45.7,37.3,29.95,North,0,0.0,0.0,72,0.00,,,0.00,WUHU216HW,2013-12-20 22:33:00,
2013-12-20 17:38:00,45.7,37.3,29.95,North,0,0.0,0.0,72,0.00,,,0.00,WUHU216HW,2013-12-20 22:38:00,
2013-12-20 17:43:00,45.5,37.7,29.95,North,0,0.0,0.0,74,0.00,,,0.00,WUHU216HW,2013-12-20 22:43:00,
2013-12-20 17:48:00,45.4,37.5,29.96,North,0,0.0,0.0,74,0.00,,,0.00,WUHU216HW,2013-12-20 22:48:00,
2013-12-20 17:53:00,45.2,37.4,29.96,North,0,0.0,0.0,74,0.00,,,0.00,WUHU216HW,2013-12-20 22:53:00,
2013-12-20 17:58:00,45.2,37.4,29.97,North,0,0.0,0.0,74,0.00,,,0.00,WUHU216HW,2013-12-20 22:58:00,
2013-12-20 18:03:00,45.0,37.2,29.97,North,0,0.0,0.0,74,0.00,,,0.00,WUHU216HW,2013-12-20 23:03:00,
2013-12-20 18:08:00,45.0,37.5,29.97,North,0,0.0,0.0,75,0.00,,,0.00,WUHU216HW,2013-12-20 23:08:00,
2013-12-20 18:13:00,45.0,37.5,29.97,North,0,0.0,0.0,75,0.00,,,0.00,WUHU216HW,2013-12-20 23:13:00,
2013-12-20 18:18:00,44.8,37.4,29.98,North,0,0.0,0.0,75,0.00,,,0.00,WUHU216HW,2013-12-20 23:18:00,
2013-12-20 18:23:00,44.8,37.7,29.98,North,0,0.0,0.0,76,0.00,,,0.00,WUHU216HW,2013-12-20 23:23:00,
2013-12-20 18:28:00,44.8,37.7,29.97,North,0,0.0,0.0,76,0.00,,,0.00,WUHU216HW,2013-12-20 23:28:00,
2013-12-20 18:33:00,44.8,37.7,29.96,North,0,0.0,0.0,76,0.00,,,0.00,WUHU216HW,2013-12-20 23:33:00,
2013-12-20 18:38:00,44.8,37.7,29.96,North,0,0.0,0.0,76,0.00,,,0.00,WUHU216HW,2013-12-20 23:38:00,
2013-12-20 18:43:00,44.8,38.1,29.96,North,0,0.0,0.0,77,0.00,,,0.00,WUHU216HW,2013-12-20 23:43:00,
2013-12-20 18:48:00,44.8,38.1,29.96,North,0,0.0,0.0,77,0.00,,,0.00,WUHU216HW,2013-12-20 23:48:00,
2013-12-20 18:53:00,44.8,38.1,29.96,North,0,0.0,0.0,77,0.00,,,0.00,WUHU216HW,2013-12-20 23:53:00,
2013-12-20 18:58:00,44.8,38.1,29.96,North,0,0.0,0.0,77,0.00,,,0.00,WUHU216HW,2013-12-20 23:58:00,
2013-12-20 19:03:00,44.8,38.1,29.96,North,0,0.0,0.0,77,0.00,,,0.00,WUHU216HW,2013-12-21 00:03:00,
2013-12-20 19:08:00,44.8,38.1,29.96,North,0,0.0,0.0,77,0.00,,,0.00,WUHU216HW,2013-12-21 00:08:00,
2013-12-20 19:13:00,44.8,38.1,29.95,North,0,0.0,0.0,77,0.00,,,0.00,WUHU216HW,2013-12-21 00:13:00,
2013-12-20 19:18:00,44.8,38.1,29.96,North,0,0.0,0.0,77,0.00,,,0.00,WUHU216HW,2013-12-21 00:18:00,
2013-12-20 19:23:00,45.0,38.3,29.96,North,0,0.0,0.0,77,0.00,,,0.00,WUHU216HW,2013-12-21 00:23:00,
2013-12-20 19:28:00,45.0,38.3,29.96,North,0,0.0,0.0,77,0.00,,,0.00,WUHU216HW,2013-12-21 00:28:00,
2013-12-20 19:33:00,45.0,38.3,29.96,North,0,0.0,0.0,77,0.00,,,0.00,WUHU216HW,2013-12-21 00:33:00,
2013-12-20 19:38:00,45.0,38.3,29.96,North,0,0.0,0.0,77,0.00,,,0.00,WUHU216HW,2013-12-21 00:38:00,
2013-12-20 19:43:00,45.0,38.3,29.97,North,0,0.0,0.0,77,0.00,,,0.00,WUHU216HW,2013-12-21 00:43:00,
2013-12-20 19:48:00,44.8,38.1,29.97,North,0,0.0,0.0,77,0.00,,,0.00,WUHU216HW,2013-12-21 00:48:00,
2013-12-20 19:53:00,44.8,38.1,29.96,North,0,0.0,0.0,77,0.00,,,0.00,WUHU216HW,2013-12-21 00:53:00,
2013-12-20 19:58:00,44.8,38.1,29.97,North,0,0.0,0.0,77,0.00,,,0.00,WUHU216HW,2013-12-21 00:58:00,
2013-12-20 20:03:00,44.8,38.1,29.97,North,0,0.0,0.0,77,0.00,,,0.00,WUHU216HW,2013-12-21 01:03:00,
2013-12-20 20:08:00,44.8,38.1,29.98,North,0,0.0,0.0,77,0.00,,,0.00,WUHU216HW,2013-12-21 01:08:00,
2013-12-20 20:13:00,45.0,38.3,29.98,North,0,0.0,0.0,77,0.00,,,0.00,WUHU216HW,2013-12-21 01:13:00,
2013-12-20 20:18:00,45.0,38.3,29.98,North,0,0.0,0.0,77,0.00,,,0.00,WUHU216HW,2013-12-21 01:18:00,
2013-12-20 20:23:00,45.0,38.5,29.99,North,0,0.0,0.0,78,0.00,,,0.00,WUHU216HW,2013-12-21 01:23:00,
2013-12-20 20:28:00,45.2,38.4,29.98,North,0,0.0,0.0,77,0.00,,,0.00,WUHU216HW,2013-12-21 01:28:00,
2013-12-20 20:33:00,45.2,38.7,29.98,North,0,0.0,0.0,78,0.00,,,0.00,WUHU216HW,2013-12-21 01:33:00,
2013-12-20 20:38:00,45.2,38.7,29.98,North,0,0.0,0.0,78,0.00,,,0.00,WUHU216HW,2013-12-21 01:38:00,
2013-12-20 20:43:00,45.0,38.5,29.98,North,0,0.0,0.0,78,0.00,,,0.00,WUHU216HW,2013-12-21 01:43:00,
2013-12-20 20:48:00,45.0,38.5,29.98,North,0,0.0,0.0,78,0.00,,,0.00,WUHU216HW,2013-12-21 01:48:00,
2013-12-20 20:53:00,45.0,38.9,29.98,North,0,0.0,0.0,79,0.00,,,0.00,WUHU216HW,2013-12-21 01:53:00,
2013-12-20 20:58:00,45.0,38.9,29.98,North,0,0.0,0.0,79,0.00,,,0.00,WUHU216HW,2013-12-21 01:58:00,
2013-12-20 21:03:00,45.0,38.9,29.97,North,0,0.0,0.0,79,0.00,,,0.00,WUHU216HW,2013-12-21 02:03:00,
2013-12-20 21:08:00,45.0,39.2,29.97,North,0,0.0,0.0,80,0.00,,,0.00,WUHU216HW,2013-12-21 02:08:00,
2013-12-20 21:13:00,45.0,39.2,29.97,North,0,0.0,0.0,80,0.00,,,0.00,WUHU216HW,2013-12-21 02:13:00,
2013-12-20 21:18:00,45.0,39.2,29.97,North,0,0.0,0.0,80,0.00,,,0.00,WUHU216HW,2013-12-21 02:18:00,
2013-12-20 21:23:00,45.0,39.2,29.97,North,0,0.0,0.0,80,0.00,,,0.00,WUHU216HW,2013-12-21 02:23:00,
2013-12-20 21:28:00,44.8,39.1,29.97,North,0,0.0,0.0,80,0.00,,,0.00,WUHU216HW,2013-12-21 02:28:00,
2013-12-20 21:33:00,44.6,39.2,29.97,North,0,0.0,0.0,81,0.00,,,0.00,WUHU216HW,2013-12-21 02:33:00,
2013-12-20 21:38:00,44.6,39.2,29.97,North,0,0.0,0.0,81,0.00,,,0.00,WUHU216HW,2013-12-21 02:38:00,
2013-12-20 21:43:00,44.5,39.0,29.97,North,0,0.0,0.0,81,0.00,,,0.00,WUHU216HW,2013-12-21 02:43:00,
2013-12-20 21:48:00,44.5,39.0,29.97,North,0,0.0,0.0,81,0.00,,,0.00,WUHU216HW,2013-12-21 02:48:00,
2013-12-20 21:53:00,44.3,38.8,29.97,North,0,0.0,0.0,81,0.00,,,0.00,WUHU216HW,2013-12-21 02:53:00,
2013-12-20 21:58:00,44.3,38.8,29.97,North,0,0.0,0.0,81,0.00,,,0.00,WUHU216HW,2013-12-21 02:58:00,
2013-12-20 22:03:00,44.1,38.6,29.96,North,0,0.0,0.0,81,0.00,,,0.00,WUHU216HW,2013-12-21 03:03:00,
2013-12-20 22:08:00,43.9,38.4,29.96,North,0,0.0,0.0,81,0.00,,,0.00,WUHU216HW,2013-12-21 03:08:00,
2013-12-20 22:13:00,43.9,38.8,29.97,North,0,0.0,0.0,82,0.00,,,0.00,WUHU216HW,2013-12-21 03:13:00,
2013-12-20 22:18:00,43.7,38.6,29.96,North,0,0.0,0.0,82,0.00,,,0.00,WUHU216HW,2013-12-21 03:18:00,
2013-12-20 22:23:00,43.6,38.4,29.96,North,0,0.0,0.0,82,0.00,,,0.00,WUHU216HW,2013-12-21 03:23:00,
2013-12-20 22:28:00,43.6,38.4,29.97,North,0,0.0,0.0,82,0.00,,,0.00,WUHU216HW,2013-12-21 03:28:00,
2013-12-20 22:33:00,43.6,38.7,29.97,North,0,0.0,0.0,83,0.00,,,0.00,WUHU216HW,2013-12-21 03:33:00,
2013-12-20 22:38:00,43.6,38.7,29.96,North,0,0.0,0.0,83,0.00,,,0.00,WUHU216HW,2013-12-21 03:38:00,
2013-12-20 22:43:00,43.6,39.1,29.96,North,0,0.0,0.0,84,0.00,,,0.00,WUHU216HW,2013-12-21 03:43:00,
2013-12-20 22:48:00,43.6,39.1,29.97,North,0,0.0,0.0,84,0.00,,,0.00,WUHU216HW,2013-12-21 03:48:00,
2013-12-20 22:53:00,43.7,39.5,29.96,North,0,0.0,0.0,85,0.00,,,0.00,WUHU216HW,2013-12-21 03:53:00,
2013-12-20 22:58:00,43.7,39.5,29.96,North,0,0.0,0.0,85,0.00,,,0.00,WUHU216HW,2013-12-21 03:58:00,
2013-12-20 23:03:00,43.9,39.7,29.95,North,0,0.0,0.0,85,0.00,,,0.00,WUHU216HW,2013-12-21 04:03:00,
2013-12-20 23:08:00,43.9,40.0,29.95,North,0,0.0,0.0,86,0.00,,,0.00,WUHU216HW,2013-12-21 04:08:00,
2013-12-20 23:13:00,43.9,39.7,29.96,North,0,0.0,0.0,85,0.00,,,0.00,WUHU216HW,2013-12-21 04:13:00,
2013-12-20 23:18:00,43.9,40.0,29.95,North,0,0.0,0.0,86,0.00,,,0.00,WUHU216HW,2013-12-21 04:18:00,
2013-12-20 23:23:00,44.1,40.1,29.95,North,0,0.0,0.0,86,0.00,,,0.00,WUHU216HW,2013-12-21 04:23:00,
2013-12-20 23:28:00,44.3,40.3,29.96,North,0,0.0,0.0,86,0.00,,,0.00,WUHU216HW,2013-12-21 04:28:00,
2013-12-20 23:33:00,44.3,40.3,29.96,North,0,0.0,0.0,86,0.00,,,0.00,WUHU216HW,2013-12-21 04:33:00,
2013-12-20 23:38:00,44.3,40.7,29.96,North,0,0.0,0.0,87,0.00,,,0.00,WUHU216HW,2013-12-21 04:38:00,
2013-12-20 23:43:00,44.3,40.7,29.96,North,0,0.0,0.0,87,0.00,,,0.00,WUHU216HW,2013-12-21 04:43:00,
2013-12-20 23:48:00,44.5,40.9,29.96,North,0,0.0,0.0,87,0.00,,,0.00,WUHU216HW,2013-12-21 04:48:00,
2013-12-20 23:53:00,44.5,40.9,29.95,North,0,0.0,0.0,87,0.00,,,0.00,WUHU216HW,2013-12-21 04:53:00,
2013-12-20 23:58:00,44.5,40.9,29.95,North,0,0.0,0.0,87,0.00,,,0.00,WUHU216HW,2013-12-21 04:58:00,